createdAt,value
2022-10-11T00:00:22.616Z,101473.44
2022-10-11T00:05:39.518Z,101479.53
2022-10-11T00:11:02.218Z,101491.06
2022-10-11T00:16:17.200Z,101490.91
2022-10-11T00:21:34.099Z,101494.09
2022-10-11T00:26:50.739Z,101504.00
2022-10-11T00:32:08.943Z,101510.50
2022-10-11T00:37:27.143Z,101512.47
2022-10-11T00:42:45.402Z,101520.78
2022-10-11T00:48:05.138Z,101518.91
2022-10-11T00:53:23.756Z,101529.09
2022-10-11T00:58:42.371Z,101522.09
2022-10-11T01:03:59.874Z,101528.81
2022-10-11T01:09:19.091Z,101531.03
2022-10-11T01:14:48.025Z,101524.66
2022-10-11T01:20:32.597Z,101526.66
2022-10-11T01:26:03.593Z,101542.06
2022-10-11T01:31:26.882Z,101546.66
2022-10-11T01:36:49.766Z,101548.44
2022-10-11T01:42:10.763Z,101550.47
2022-10-11T01:47:28.322Z,101558.97
2022-10-11T01:52:46.489Z,101560.13
2022-10-11T01:58:18.850Z,101562.03
2022-10-11T02:03:41.732Z,101566.72
2022-10-11T02:09:08.046Z,101575.63
2022-10-11T02:14:27.887Z,101578.63
2022-10-11T02:19:47.103Z,101575.22
2022-10-11T02:25:07.616Z,101589.44
2022-10-11T02:30:25.544Z,101588.22
2022-10-11T02:35:47.017Z,101588.63
2022-10-11T02:41:12.871Z,101597.97
2022-10-11T02:46:31.170Z,101597.59
2022-10-11T02:51:47.935Z,101592.69
2022-10-11T02:57:06.192Z,101598.56
2022-10-11T03:02:24.766Z,101602.38
2022-10-11T03:07:42.554Z,101606.13
2022-10-11T03:13:00.706Z,101607.56
2022-10-11T03:18:18.971Z,101615.75
2022-10-11T03:23:37.171Z,101615.38
2022-10-11T03:28:55.447Z,101626.34
2022-10-11T03:34:13.545Z,101641.50
2022-10-11T03:39:32.011Z,101643.41
2022-10-11T03:44:51.843Z,101642.72
2022-10-11T03:50:10.801Z,101645.09
2022-10-11T03:55:26.022Z,101657.78
2022-10-11T04:00:41.030Z,101662.56
2022-10-11T04:05:57.986Z,101666.84
2022-10-11T04:11:21.094Z,101667.47
2022-10-11T04:16:40.077Z,101682.78
2022-10-11T04:21:57.449Z,101695.91
2022-10-11T04:27:15.618Z,101701.81
2022-10-11T04:32:33.865Z,101696.44
2022-10-11T04:37:52.115Z,101706.84
2022-10-11T04:43:10.366Z,101706.34
2022-10-11T04:48:28.510Z,101706.69
2022-10-11T04:53:46.718Z,101711.81
2022-10-11T04:59:05.248Z,101727.22
2022-10-11T05:04:21.095Z,101733.69
2022-10-11T05:11:29.917Z,101731.47
2022-10-11T05:16:44.272Z,101733.34
2022-10-11T05:21:59.935Z,101738.91
2022-10-11T05:27:16.945Z,101744.47
2022-10-11T05:32:36.245Z,101752.41
2022-10-11T05:37:53.314Z,101762.06
2022-10-11T05:43:09.815Z,101756.84
2022-10-11T05:48:26.849Z,101777.78
2022-10-11T05:53:44.819Z,101777.53
2022-10-11T05:59:03.006Z,101788.63
2022-10-11T06:04:21.190Z,101797.34
2022-10-11T06:09:39.747Z,101798.59
2022-10-11T06:14:57.557Z,101800.91
2022-10-11T06:20:29.624Z,101812.50
2022-10-11T06:26:07.250Z,101811.34
2022-10-11T06:31:43.303Z,101808.09
2022-10-11T06:37:13.826Z,101811.53
2022-10-11T06:42:48.858Z,101820.50
2022-10-11T06:48:18.543Z,101825.44
2022-10-11T06:54:01.775Z,101827.41
2022-10-11T06:59:41.045Z,101838.59
2022-10-11T07:05:29.280Z,101839.28
2022-10-11T07:11:04.482Z,101846.09
2022-10-11T07:16:53.676Z,101851.00
2022-10-11T07:22:27.339Z,101855.66
2022-10-11T07:28:00.031Z,101861.81
2022-10-11T07:33:30.993Z,101857.72
2022-10-11T07:39:17.059Z,101862.53
2022-10-11T07:44:58.015Z,101864.16
2022-10-11T07:50:33.995Z,101864.56
2022-10-11T07:56:16.310Z,101867.06
2022-10-11T08:01:47.740Z,101865.16
2022-10-11T08:07:18.665Z,101870.09
2022-10-11T08:13:04.433Z,101873.38
2022-10-11T08:18:44.029Z,101878.53
2022-10-11T08:24:20.836Z,101878.50
2022-10-11T08:29:51.764Z,101867.16
2022-10-11T08:35:23.247Z,101883.88
2022-10-11T08:40:57.226Z,101890.81
2022-10-11T08:46:30.747Z,101884.75
2022-10-11T08:52:04.521Z,101892.19
2022-10-11T08:57:36.433Z,101882.50
2022-10-11T09:03:16.971Z,101889.75
2022-10-11T09:08:40.897Z,101890.72
2022-10-11T09:13:59.696Z,101890.13
2022-10-11T09:19:27.649Z,101893.13
2022-10-11T09:24:41.289Z,101893.53
2022-10-11T09:29:52.692Z,101896.66
2022-10-11T09:35:00.598Z,101892.41
2022-10-11T09:40:19.219Z,101893.84
2022-10-11T09:45:23.284Z,101881.78
2022-10-11T09:50:30.517Z,101885.19
2022-10-11T09:55:37.177Z,101888.28
2022-10-11T10:00:40.567Z,101891.38
2022-10-11T10:05:43.942Z,101894.59
2022-10-11T10:10:54.693Z,101891.56
2022-10-11T10:16:04.136Z,101891.72
2022-10-11T10:21:11.653Z,101889.22
2022-10-11T10:26:19.814Z,101897.94
2022-10-11T10:31:24.916Z,101898.09
2022-10-11T10:36:30.565Z,101900.56
2022-10-11T10:41:35.930Z,101896.81
2022-10-11T10:46:51.545Z,101894.25
2022-10-11T10:52:05.809Z,101892.41
2022-10-11T10:57:17.423Z,101898.50
2022-10-11T11:07:48.789Z,101897.41
2022-10-11T11:12:59.051Z,101892.94
2022-10-11T11:18:14.756Z,101896.53
2022-10-11T11:23:23.599Z,101893.25
2022-10-11T11:28:51.047Z,101889.53
2022-10-11T11:34:02.879Z,101891.38
2022-10-11T11:39:13.513Z,101891.63
2022-10-11T11:44:27.087Z,101884.44
2022-10-11T11:49:34.109Z,101897.13
2022-10-11T11:54:45.793Z,101890.28
2022-10-11T11:59:53.642Z,101898.53
2022-10-11T12:04:58.136Z,101889.47
2022-10-11T12:10:27.222Z,101888.75
2022-10-11T12:15:33.274Z,101893.13
2022-10-11T12:20:40.615Z,101884.53
2022-10-11T12:25:45.015Z,101881.31
2022-10-11T12:30:53.701Z,101885.22
2022-10-11T12:36:04.067Z,101872.53
2022-10-11T12:41:38.854Z,101872.38
2022-10-11T12:47:21.439Z,101858.66
2022-10-11T12:52:30.967Z,101866.28
2022-10-11T12:58:09.941Z,101856.97
2022-10-11T13:03:32.466Z,101868.28
2022-10-11T13:08:38.215Z,101861.06
2022-10-11T13:13:43.987Z,101847.09
2022-10-11T13:18:50.411Z,101852.84
2022-10-11T13:23:57.662Z,101860.94
2022-10-11T13:29:01.347Z,101845.66
2022-10-11T13:34:06.181Z,101834.28
2022-10-11T13:39:30.898Z,101851.16
2022-10-11T13:44:36.262Z,101858.25
2022-10-11T13:49:41.307Z,101843.63
2022-10-11T13:55:14.619Z,101840.63
2022-10-11T14:00:30.566Z,101829.94
2022-10-11T14:05:38.263Z,101833.09
2022-10-11T14:10:46.711Z,101830.50
2022-10-11T14:16:00.607Z,101834.16
2022-10-11T14:21:31.275Z,101839.44
2022-10-11T14:26:37.378Z,101843.25
2022-10-11T14:31:42.286Z,101841.19
2022-10-11T14:36:47.680Z,101840.28
2022-10-11T14:41:52.461Z,101839.59
2022-10-11T14:46:56.142Z,101842.41
2022-10-11T14:52:01.591Z,101845.91
2022-10-11T14:57:05.326Z,101850.00
2022-10-11T15:02:11.672Z,101843.53
2022-10-11T15:07:16.530Z,101846.50
2022-10-11T15:12:20.945Z,101840.72
2022-10-11T15:17:24.593Z,101842.69
2022-10-11T15:22:29.871Z,101834.78
2022-10-11T15:27:33.437Z,101828.97
2022-10-11T15:32:36.939Z,101824.03
2022-10-11T15:37:41.862Z,101828.13
2022-10-11T15:42:45.543Z,101835.03
2022-10-11T15:47:49.869Z,101837.28
2022-10-11T15:52:54.585Z,101834.56
2022-10-11T15:57:58.410Z,101838.88
2022-10-11T16:03:02.278Z,101843.09
2022-10-11T16:08:07.256Z,101847.03
2022-10-11T16:13:11.719Z,101857.44
2022-10-11T16:18:16.868Z,101854.56
2022-10-11T16:23:22.379Z,101864.78
2022-10-11T16:28:26.599Z,101866.66
2022-10-11T16:33:31.755Z,101867.50
2022-10-11T16:38:36.713Z,101869.31
2022-10-11T16:43:40.729Z,101867.88
2022-10-11T16:48:44.374Z,101868.47
2022-10-11T16:53:49.235Z,101878.28
2022-10-11T16:58:53.385Z,101872.25
2022-10-11T17:03:58.134Z,101880.53
2022-10-11T17:09:03.710Z,101885.47
2022-10-11T17:14:08.135Z,101883.97
2022-10-11T17:19:12.897Z,101883.84
2022-10-11T17:24:17.761Z,101883.53
2022-10-11T17:29:22.152Z,101882.25
2022-10-11T17:34:25.884Z,101877.63
2022-10-11T17:39:30.910Z,101875.72
2022-10-11T17:44:35.982Z,101885.00
2022-10-11T17:49:39.854Z,101887.66
2022-10-11T17:54:44.639Z,101883.69
2022-10-11T17:59:48.190Z,101879.59
2022-10-11T18:04:51.618Z,101880.44
2022-10-11T18:09:57.041Z,101889.34
2022-10-11T18:15:01.451Z,101883.19
2022-10-11T18:20:05.975Z,101888.88
2022-10-11T18:25:11.162Z,101892.47
2022-10-11T18:30:14.725Z,101890.19
2022-10-11T18:35:18.343Z,101883.16
2022-10-11T18:40:23.647Z,101886.16
2022-10-11T18:45:27.564Z,101886.47
2022-10-11T18:50:34.890Z,101889.63
2022-10-11T18:55:39.746Z,101882.38
2022-10-11T19:00:43.159Z,101872.16
2022-10-11T19:05:46.578Z,101871.78
2022-10-11T19:10:51.455Z,101872.00
2022-10-11T19:15:55.383Z,101870.41
2022-10-11T19:21:02.071Z,101883.09
2022-10-11T19:26:07.624Z,101878.25
2022-10-11T19:31:16.223Z,101877.66
2022-10-11T19:36:19.736Z,101884.53
2022-10-11T19:41:25.796Z,101878.84
2022-10-11T19:46:50.452Z,101870.03
2022-10-11T19:51:53.726Z,101871.72
2022-10-11T19:56:58.637Z,101882.50
2022-10-11T20:02:02.198Z,101878.56
2022-10-11T20:07:05.697Z,101881.13
2022-10-11T20:12:10.774Z,101882.53
2022-10-11T20:17:17.758Z,101875.97
2022-10-11T20:22:21.098Z,101871.03
2022-10-11T20:27:25.910Z,101877.44
2022-10-11T20:32:29.388Z,101880.25
2022-10-11T20:37:33.172Z,101875.59
2022-10-11T20:42:38.567Z,101883.38
2022-10-11T20:47:42.190Z,101881.44
2022-10-11T20:52:45.568Z,101884.75
2022-10-11T20:57:50.576Z,101886.81
2022-10-11T21:02:54.138Z,101883.63
2022-10-11T21:07:57.567Z,101885.53
2022-10-11T21:13:03.042Z,101886.16
2022-10-11T21:18:07.046Z,101886.94
2022-10-11T21:23:10.794Z,101888.78
2022-10-11T21:28:15.709Z,101881.72
2022-10-11T21:33:19.156Z,101882.03
2022-10-11T21:38:22.611Z,101887.78
2022-10-11T21:43:27.560Z,101886.06
2022-10-11T21:48:31.127Z,101890.31
2022-10-11T21:53:34.683Z,101889.53
2022-10-11T21:58:39.505Z,101893.13
2022-10-11T22:03:43.072Z,101890.19
2022-10-11T22:08:46.502Z,101883.03
2022-10-11T22:13:51.458Z,101881.72
2022-10-11T22:18:55.318Z,101881.97
2022-10-11T22:23:58.747Z,101882.28
2022-10-11T22:29:03.547Z,101880.72
2022-10-11T22:34:06.943Z,101874.06
2022-10-11T22:39:11.311Z,101877.41
2022-10-11T22:44:16.386Z,101875.84
2022-10-11T22:49:19.980Z,101877.09
2022-10-11T22:54:23.415Z,101878.28
2022-10-11T22:59:28.234Z,101879.16
2022-10-11T23:04:31.733Z,101878.50
2022-10-11T23:09:35.148Z,101874.56
2022-10-11T23:14:40.479Z,101869.81
2022-10-11T23:19:44.469Z,101884.41
2022-10-11T23:24:47.964Z,101881.84
2022-10-11T23:29:52.726Z,101884.25
2022-10-11T23:34:56.250Z,101885.72
2022-10-11T23:39:59.751Z,101891.81
2022-10-11T23:45:05.804Z,101889.94
2022-10-11T23:50:09.937Z,101902.25
2022-10-11T23:55:13.423Z,101907.47
